DLH349 KLAX-EDDM
Flight info
| Callsign | DLH349 |
|---|---|
| Flight time | N/A |
| Altitude | 35000 |
| Route | OSHNN1 BEALE DCT EEVUN Q70 BAWER DCT KD57Q DCT KD72U DCT KP03A DCT GABOV DCT 53N090W 5930N08000W/N0467F370 DCT BEPEG DCT MUSVA/M081F370 DCT CLAVY DCT 64N050W 64N040W 63N030W 6130N02000W/M082F390 DCT BALIX/N0474F390 DCT NINEX DCT TOPPA DCT OTMEC DCT MISGO DCT DOJOH DCT DODEN/N0436F330 DCT TABUM DCT BOMBI T104 HAREM/N0394F270 T104 ROKIL ROKIL1A |
| Aircraft | A388/J-SADE2E3FGHIJ3J4J5M1RWXY/LB1D1 |
Departure
| Time | 2026-04-26 05:13 |
|---|---|
| Airport | Los Angeles International Airport (KLAX) |
Arrival
| Time | N/A |
|---|---|
| Airport | Munich Airport (EDDM) |
| Time | Latitude | Longitude | Altitude | Speed | Heading |
|---|---|---|---|---|---|
| 2026-04-26 04:39 | 33.94020 | -118.41078 | 98 ft | 0 kts | 83° |
| 2026-04-26 04:55 | 33.94019 | -118.41095 | 99 ft | 4 kts | 83° |
| 2026-04-26 04:55 | 33.94016 | -118.41127 | 96 ft | 4 kts | 83° |
| 2026-04-26 04:56 | 33.94010 | -118.41157 | 96 ft | 4 kts | 56° |
| 2026-04-26 04:56 | 33.93991 | -118.41175 | 97 ft | 4 kts | 11° |
| 2026-04-26 04:56 | 33.93970 | -118.41176 | 99 ft | 2 kts | 353° |
| 2026-04-26 04:56 | 33.93944 | -118.41173 | 97 ft | 4 kts | 353° |
| 2026-04-26 04:57 | 33.93933 | -118.41171 | 98 ft | 3 kts | 353° |
| 2026-04-26 05:02 | 33.93936 | -118.41171 | 98 ft | 5 kts | 353° |
| 2026-04-26 05:02 | 33.94031 | -118.41186 | 99 ft | 13 kts | 353° |
| 2026-04-26 05:03 | 33.94122 | -118.41200 | 99 ft | 13 kts | 352° |
| 2026-04-26 05:03 | 33.94215 | -118.41215 | 98 ft | 14 kts | 352° |
| 2026-04-26 05:03 | 33.94310 | -118.41230 | 99 ft | 14 kts | 353° |
| 2026-04-26 05:03 | 33.94406 | -118.41244 | 99 ft | 14 kts | 353° |
| 2026-04-26 05:04 | 33.94504 | -118.41257 | 99 ft | 14 kts | 354° |
| 2026-04-26 05:04 | 33.94601 | -118.41269 | 100 ft | 13 kts | 352° |
| 2026-04-26 05:04 | 33.94684 | -118.41283 | 100 ft | 13 kts | 351° |
| 2026-04-26 05:04 | 33.94753 | -118.41296 | 99 ft | 8 kts | 354° |
| 2026-04-26 05:05 | 33.94784 | -118.41283 | 102 ft | 4 kts | 53° |
| 2026-04-26 05:05 | 33.94796 | -118.41240 | 100 ft | 8 kts | 79° |
| 2026-04-26 05:05 | 33.94805 | -118.41157 | 102 ft | 12 kts | 85° |
| 2026-04-26 05:05 | 33.94806 | -118.41032 | 102 ft | 17 kts | 93° |
| 2026-04-26 05:06 | 33.94825 | -118.40885 | 101 ft | 19 kts | 72° |
| 2026-04-26 05:06 | 33.94850 | -118.40727 | 100 ft | 20 kts | 83° |
| 2026-04-26 05:06 | 33.94868 | -118.40553 | 99 ft | 22 kts | 83° |
| 2026-04-26 05:06 | 33.94884 | -118.40403 | 99 ft | 12 kts | 83° |
| 2026-04-26 05:07 | 33.94895 | -118.40286 | 99 ft | 16 kts | 83° |
| 2026-04-26 05:07 | 33.94909 | -118.40135 | 99 ft | 19 kts | 83° |
| 2026-04-26 05:07 | 33.94924 | -118.39990 | 98 ft | 5 kts | 78° |
| 2026-04-26 05:07 | 33.94931 | -118.39960 | 98 ft | 0 kts | 65° |
| 2026-04-26 05:09 | 33.94932 | -118.39956 | 98 ft | 2 kts | 64° |
| 2026-04-26 05:09 | 33.94973 | -118.39918 | 101 ft | 10 kts | 11° |
| 2026-04-26 05:09 | 33.95031 | -118.39926 | 99 ft | 5 kts | 314° |
| 2026-04-26 05:09 | 33.95040 | -118.39955 | 100 ft | 5 kts | 262° |
| 2026-04-26 05:10 | 33.95039 | -118.39962 | 101 ft | 1 kts | 261° |
| 2026-04-26 05:10 | 33.95038 | -118.39972 | 101 ft | 0 kts | 263° |
| 2026-04-26 05:12 | 33.95037 | -118.39979 | 102 ft | 1 kts | 263° |
| 2026-04-26 05:12 | 33.95035 | -118.39998 | 102 ft | 9 kts | 263° |
| 2026-04-26 05:13 | 33.94999 | -118.40365 | 102 ft | 79 kts | 264° |
| 2026-04-26 05:13 | 33.94909 | -118.41266 | 103 ft | 133 kts | 263° |
| 2026-04-26 05:13 | 33.94778 | -118.42509 | 190 ft | 159 kts | 263° |
| 2026-04-26 05:13 | 33.94633 | -118.43796 | 735 ft | 151 kts | 262° |
| 2026-04-26 05:14 | 33.94481 | -118.45093 | 1133 ft | 158 kts | 262° |
| 2026-04-26 05:14 | 33.94353 | -118.46392 | 1610 ft | 159 kts | 263° |
| 2026-04-26 05:14 | 33.94302 | -118.47739 | 1959 ft | 167 kts | 269° |
| 2026-04-26 05:14 | 33.94276 | -118.49205 | 2117 ft | 182 kts | 268° |
| 2026-04-26 05:15 | 33.94237 | -118.50777 | 2225 ft | 194 kts | 266° |
| 2026-04-26 05:15 | 33.94110 | -118.52452 | 2307 ft | 210 kts | 264° |
| 2026-04-26 05:15 | 33.93962 | -118.54285 | 2538 ft | 230 kts | 265° |
| 2026-04-26 05:15 | 33.93802 | -118.56291 | 2811 ft | 248 kts | 264° |
| 2026-04-26 05:16 | 33.93641 | -118.58346 | 3546 ft | 246 kts | 265° |
| 2026-04-26 05:16 | 33.93469 | -118.60412 | 4182 ft | 248 kts | 261° |
| 2026-04-26 05:16 | 33.92832 | -118.62341 | 4871 ft | 253 kts | 235° |
| 2026-04-26 05:16 | 33.91483 | -118.63695 | 5519 ft | 259 kts | 207° |
| 2026-04-26 05:17 | 33.89710 | -118.64140 | 6192 ft | 268 kts | 181° |
| 2026-04-26 05:17 | 33.87896 | -118.63542 | 6822 ft | 276 kts | 154° |
| 2026-04-26 05:17 | 33.86299 | -118.62227 | 7454 ft | 281 kts | 147° |
| 2026-04-26 05:17 | 33.84698 | -118.60843 | 8038 ft | 283 kts | 150° |
| 2026-04-26 05:18 | 33.83023 | -118.59602 | 8681 ft | 283 kts | 155° |
| 2026-04-26 05:18 | 33.81280 | -118.58493 | 9314 ft | 284 kts | 158° |
| 2026-04-26 05:18 | 33.79492 | -118.57458 | 9941 ft | 285 kts | 159° |
| 2026-04-26 05:18 | 33.77665 | -118.56446 | 10281 ft | 297 kts | 160° |
| 2026-04-26 05:19 | 33.75729 | -118.55391 | 10439 ft | 313 kts | 160° |
| 2026-04-26 05:19 | 33.73695 | -118.54283 | 10578 ft | 329 kts | 159° |
| 2026-04-26 05:19 | 33.71594 | -118.53083 | 10821 ft | 341 kts | 153° |
| 2026-04-26 05:19 | 33.69792 | -118.51186 | 11328 ft | 351 kts | 131° |
| 2026-04-26 05:20 | 33.68620 | -118.48577 | 11800 ft | 361 kts | 112° |
| 2026-04-26 05:20 | 33.67787 | -118.45707 | 12248 ft | 366 kts | 111° |
| 2026-04-26 05:20 | 33.66954 | -118.42813 | 12727 ft | 370 kts | 112° |
| 2026-04-26 05:20 | 33.66115 | -118.39932 | 13199 ft | 374 kts | 112° |
| 2026-04-26 05:21 | 33.65249 | -118.36971 | 13665 ft | 378 kts | 110° |
| 2026-04-26 05:21 | 33.64629 | -118.33882 | 14097 ft | 384 kts | 101° |
| 2026-04-26 05:21 | 33.64424 | -118.30663 | 14525 ft | 390 kts | 91° |
| 2026-04-26 05:21 | 33.64455 | -118.27400 | 14939 ft | 393 kts | 91° |
| 2026-04-26 05:22 | 33.64467 | -118.24108 | 15356 ft | 396 kts | 91° |
| 2026-04-26 05:22 | 33.64570 | -118.20790 | 15721 ft | 401 kts | 81° |
| 2026-04-26 05:22 | 33.65405 | -118.17593 | 16150 ft | 404 kts | 62° |
| 2026-04-26 05:22 | 33.67006 | -118.14837 | 16551 ft | 403 kts | 43° |
| 2026-04-26 05:23 | 33.69184 | -118.12743 | 16954 ft | 401 kts | 29° |
| 2026-04-26 05:23 | 33.71563 | -118.10978 | 17370 ft | 403 kts | 27° |
| 2026-04-26 05:23 | 33.73948 | -118.09183 | 17762 ft | 407 kts | 29° |
| 2026-04-26 05:23 | 33.76302 | -118.07272 | 18149 ft | 410 kts | 31° |
| 2026-04-26 05:24 | 33.78632 | -118.05267 | 18534 ft | 413 kts | 32° |
| 2026-04-26 05:24 | 33.80953 | -118.03209 | 18874 ft | 416 kts | 32° |
| 2026-04-26 05:24 | 33.83274 | -118.01124 | 19248 ft | 419 kts | 33° |
| 2026-04-26 05:24 | 33.85611 | -117.99018 | 19568 ft | 421 kts | 33° |
| 2026-04-26 05:25 | 33.87969 | -117.96891 | 19960 ft | 423 kts | 33° |
| 2026-04-26 05:25 | 33.90321 | -117.94769 | 20319 ft | 425 kts | 33° |
| 2026-04-26 05:25 | 33.92691 | -117.92624 | 20629 ft | 428 kts | 33° |
| 2026-04-26 05:25 | 33.95074 | -117.90446 | 20967 ft | 431 kts | 33° |
| 2026-04-26 05:26 | 33.97465 | -117.88254 | 21299 ft | 433 kts | 33° |
| 2026-04-26 05:26 | 33.99867 | -117.86052 | 21606 ft | 436 kts | 33° |
| 2026-04-26 05:26 | 34.02278 | -117.83843 | 21920 ft | 438 kts | 33° |
| 2026-04-26 05:26 | 34.04722 | -117.81604 | 22232 ft | 441 kts | 33° |
| 2026-04-26 05:27 | 34.07169 | -117.79359 | 22555 ft | 443 kts | 34° |
| 2026-04-26 05:27 | 34.09476 | -117.76867 | 22852 ft | 450 kts | 43° |
| 2026-04-26 05:27 | 34.11510 | -117.73969 | 23153 ft | 454 kts | 49° |
| 2026-04-26 05:27 | 34.13494 | -117.70992 | 23492 ft | 457 kts | 48° |
| 2026-04-26 05:28 | 34.15501 | -117.68014 | 23760 ft | 459 kts | 48° |